Newport News, Virginia
Current Conditions -  °F | °C
As of 4:58 PM on Tuesday 25 Nov 2014 (Local Time) from KLFI Reporting Station
Broken Clouds Broken Clouds  
Wind Chill: 53°   Ceiling: 7000
Heat Index: 53°   Visibility: 10mi
Dew Point: 40°   Wind: 7mph
Humidity: 62%   Direction: 30°NNE
Pressure: 30.1"   Gusts: NA
Location:  36.98°N, 76.43°W
Report Text: KLFI 252158Z AUTO 03006KT 10SM BKN070 12/05 A3010 RMK AO2 SLP200 T01180047 $
Loading
Personal Weather Stations






























Interactive Weather Map New forecast layout! Learn more

10-Day Weather Forecast

Advertisements
Track Severe Weather on mobile